createdAt,value
2023-04-18T00:01:28.992Z,57.18
2023-04-18T00:03:58.072Z,57.59
2023-04-18T00:06:25.948Z,59.51
2023-04-18T00:08:53.900Z,60.25
2023-04-18T00:11:21.810Z,61.51
2023-04-18T00:13:49.547Z,64.33
2023-04-18T00:16:17.422Z,66.27
2023-04-18T00:18:45.373Z,63.83
2023-04-18T00:21:13.851Z,62.48
2023-04-18T00:23:41.712Z,58.72
2023-04-18T00:26:09.407Z,57.61
2023-04-18T00:28:37.871Z,59.28
2023-04-18T00:31:05.734Z,61.68
2023-04-18T00:33:34.604Z,64.01
2023-04-18T00:36:03.371Z,65.08
2023-04-18T00:38:31.097Z,62.41
2023-04-18T00:40:58.865Z,59.78
2023-04-18T00:43:26.938Z,57.53
2023-04-18T00:45:57.027Z,57.85
2023-04-18T00:48:25.664Z,59.12
2023-04-18T00:50:55.122Z,60.70
2023-04-18T00:53:23.068Z,63.99
2023-04-18T00:55:51.358Z,65.06
2023-04-18T00:58:19.120Z,61.57
2023-04-18T01:00:47.201Z,60.75
2023-04-18T01:03:18.648Z,57.77
2023-04-18T01:05:47.162Z,57.37
2023-04-18T01:08:15.104Z,58.84
2023-04-18T01:10:42.920Z,60.28
2023-04-18T01:13:15.980Z,61.94
2023-04-18T01:15:45.750Z,65.23
2023-04-18T01:18:19.173Z,64.65
2023-04-18T01:20:49.080Z,61.07
2023-04-18T01:23:18.127Z,58.90
2023-04-18T01:25:49.210Z,57.99
2023-04-18T01:28:21.287Z,58.64
2023-04-18T01:30:50.344Z,60.64
2023-04-18T01:33:18.801Z,64.69
2023-04-18T01:35:48.217Z,65.10
2023-04-18T01:38:15.962Z,62.21
2023-04-18T01:40:44.183Z,59.04
2023-04-18T01:43:12.018Z,58.06
2023-04-18T01:45:39.832Z,59.75
2023-04-18T01:48:09.853Z,61.38
2023-04-18T01:50:37.646Z,64.97
2023-04-18T01:53:05.623Z,65.41
2023-04-18T01:55:33.557Z,62.16
2023-04-18T01:58:01.426Z,58.75
2023-04-18T02:00:29.312Z,57.71
2023-04-18T02:02:59.509Z,59.35
2023-04-18T02:05:27.616Z,61.07
2023-04-18T02:07:55.945Z,63.63
2023-04-18T02:10:24.487Z,65.63
2023-04-18T02:12:52.371Z,61.47
2023-04-18T02:15:21.116Z,59.99
2023-04-18T02:17:49.176Z,57.42
2023-04-18T02:20:17.292Z,56.74
2023-04-18T02:22:46.310Z,58.04
2023-04-18T02:25:14.120Z,60.10
2023-04-18T02:27:41.940Z,61.55
2023-04-18T02:30:10.078Z,64.49
2023-04-18T02:32:37.968Z,65.41
2023-04-18T02:35:06.562Z,63.28
2023-04-18T02:37:34.507Z,60.95
2023-04-18T02:40:05.018Z,58.00
2023-04-18T02:42:33.121Z,56.57
2023-04-18T02:45:02.286Z,58.25
2023-04-18T02:47:33.395Z,60.15
2023-04-18T02:50:06.641Z,61.27
2023-04-18T02:52:34.855Z,64.39
2023-04-18T02:55:03.033Z,65.90
2023-04-18T02:57:35.243Z,64.82
2023-04-18T03:00:38.251Z,62.03
2023-04-18T03:03:25.237Z,60.22
2023-04-18T03:06:16.816Z,59.66
2023-04-18T03:08:44.544Z,58.97
2023-04-18T03:11:12.304Z,56.79
2023-04-18T03:13:40.067Z,56.60
2023-04-18T03:16:08.504Z,57.60
2023-04-18T03:18:36.719Z,57.23
2023-04-18T03:21:04.505Z,58.58
2023-04-18T03:23:33.366Z,59.45
2023-04-18T03:26:02.253Z,60.67
2023-04-18T03:28:31.896Z,60.93
2023-04-18T03:30:59.719Z,61.78
2023-04-18T03:33:28.821Z,66.59
2023-04-18T03:36:03.226Z,69.03
2023-04-18T03:38:30.872Z,66.57
2023-04-18T03:40:58.573Z,63.76
2023-04-18T03:43:32.320Z,62.01
2023-04-18T03:46:00.675Z,58.41
2023-04-18T03:48:29.768Z,56.98
2023-04-18T03:51:00.899Z,57.50
2023-04-18T03:53:28.900Z,58.48
2023-04-18T03:55:56.945Z,58.64
2023-04-18T03:58:29.587Z,62.20
2023-04-18T04:00:57.988Z,65.56
2023-04-18T04:03:27.932Z,65.25
2023-04-18T04:05:56.542Z,63.12
2023-04-18T04:08:25.092Z,62.19
2023-04-18T04:10:54.200Z,60.68
2023-04-18T04:13:24.271Z,59.90
2023-04-18T04:15:52.088Z,56.18
2023-04-18T04:18:20.314Z,55.87
2023-04-18T04:20:48.086Z,57.13
2023-04-18T04:23:29.451Z,58.52
2023-04-18T04:25:58.586Z,59.21
2023-04-18T04:28:46.736Z,64.44
2023-04-18T04:31:16.487Z,65.89
2023-04-18T04:33:44.912Z,62.97
2023-04-18T04:36:19.185Z,61.79
2023-04-18T04:38:49.123Z,59.98
2023-04-18T04:41:18.091Z,57.31
2023-04-18T04:43:47.104Z,56.72
2023-04-18T04:46:20.131Z,57.21
2023-04-18T04:48:50.021Z,58.35
2023-04-18T04:51:17.801Z,58.77
2023-04-18T04:53:45.596Z,60.55
2023-04-18T04:56:13.731Z,60.24
2023-04-18T04:58:41.463Z,60.15
2023-04-18T05:01:25.752Z,64.78
2023-04-18T05:03:54.848Z,68.59
2023-04-18T05:06:23.030Z,66.52
2023-04-18T05:08:51.025Z,62.10
2023-04-18T05:11:18.866Z,60.21
2023-04-18T05:13:46.535Z,58.46
2023-04-18T05:16:14.278Z,56.16
2023-04-18T05:18:42.209Z,56.17
2023-04-18T05:21:10.552Z,58.09
2023-04-18T05:23:38.253Z,59.25
2023-04-18T05:26:05.970Z,59.45
2023-04-18T05:28:33.611Z,62.06
2023-04-18T05:31:01.449Z,67.13
2023-04-18T05:33:32.607Z,66.04
2023-04-18T05:36:00.248Z,62.28
2023-04-18T05:38:27.948Z,59.27
2023-04-18T05:40:56.009Z,56.59
2023-04-18T05:43:23.870Z,56.67
2023-04-18T05:45:52.805Z,56.93
2023-04-18T05:48:21.396Z,58.99
2023-04-18T05:50:49.057Z,60.78
2023-04-18T05:53:16.713Z,62.61
2023-04-18T05:55:46.504Z,66.88
2023-04-18T05:58:14.815Z,66.17
2023-04-18T06:00:42.789Z,63.39
2023-04-18T06:03:11.300Z,60.31
2023-04-18T06:05:41.013Z,57.10
2023-04-18T06:08:08.784Z,56.13
2023-04-18T06:10:38.864Z,58.03
2023-04-18T06:13:06.868Z,58.46
2023-04-18T06:15:34.842Z,60.99
2023-04-18T06:18:02.712Z,60.78
2023-04-18T06:20:30.797Z,61.43
2023-04-18T06:22:58.436Z,62.82
2023-04-18T06:25:26.243Z,68.68
2023-04-18T06:27:54.043Z,66.95
2023-04-18T06:30:22.311Z,63.73
2023-04-18T06:32:50.179Z,60.99
2023-04-18T06:35:17.874Z,58.35
2023-04-18T06:37:45.532Z,58.25
2023-04-18T06:40:13.312Z,59.84
2023-04-18T06:42:41.973Z,59.94
2023-04-18T06:45:11.927Z,61.50
2023-04-18T06:47:39.915Z,66.41
2023-04-18T06:50:07.937Z,67.72
2023-04-18T06:52:40.518Z,63.65
2023-04-18T06:55:09.202Z,61.81
2023-04-18T06:57:41.129Z,60.13
2023-04-18T07:00:10.081Z,57.21
2023-04-18T07:02:38.393Z,56.77
2023-04-18T07:05:06.682Z,58.81
2023-04-18T07:07:34.833Z,58.99
2023-04-18T07:10:02.543Z,63.44
2023-04-18T07:12:30.170Z,65.17
2023-04-18T07:14:57.803Z,62.54
2023-04-18T07:17:25.541Z,60.17
2023-04-18T07:19:53.253Z,57.24
2023-04-18T07:22:21.063Z,56.33
2023-04-18T07:24:48.751Z,57.33
2023-04-18T07:27:16.524Z,58.51
2023-04-18T07:29:44.138Z,59.33
2023-04-18T07:32:11.792Z,62.15
2023-04-18T07:34:40.371Z,65.71
2023-04-18T07:37:08.125Z,65.87
2023-04-18T07:39:36.203Z,63.70
2023-04-18T07:42:04.082Z,60.74
2023-04-18T07:44:31.754Z,57.76
2023-04-18T07:46:59.450Z,56.18
2023-04-18T07:49:27.733Z,56.67
2023-04-18T07:51:55.945Z,56.49
2023-04-18T07:54:23.773Z,58.47
2023-04-18T07:56:51.464Z,59.69
2023-04-18T07:59:19.302Z,61.37
2023-04-18T13:02:41.691Z,73.48
2023-04-18T13:05:11.979Z,74.94
2023-04-18T13:07:40.739Z,69.07
2023-04-18T13:10:09.594Z,65.25
2023-04-18T13:12:38.046Z,63.13
2023-04-18T13:15:07.260Z,59.37
2023-04-18T13:17:38.830Z,56.88
2023-04-18T13:20:10.645Z,57.01
2023-04-18T13:22:39.582Z,59.43
2023-04-18T13:25:10.400Z,60.04
2023-04-18T13:27:41.391Z,60.71
2023-04-18T13:30:10.989Z,62.46
2023-04-18T13:32:40.520Z,65.15
2023-04-18T13:35:10.893Z,60.83
2023-04-18T13:37:39.173Z,55.96
2023-04-18T13:40:07.970Z,54.95
2023-04-18T13:42:37.315Z,55.90
2023-04-18T13:45:05.861Z,57.73
2023-04-18T13:47:38.683Z,58.13
2023-04-18T13:50:07.369Z,59.19
2023-04-18T13:52:35.392Z,59.87
2023-04-18T13:55:03.981Z,61.50
2023-04-18T13:57:33.788Z,61.98
2023-04-18T14:00:01.645Z,64.42
2023-04-18T14:02:40.746Z,62.51
2023-04-18T14:05:09.362Z,57.33
2023-04-18T14:07:38.439Z,55.33
2023-04-18T14:10:06.862Z,56.42
2023-04-18T14:12:35.311Z,58.03
2023-04-18T14:15:03.502Z,59.74
2023-04-18T14:17:31.470Z,59.37
2023-04-18T14:19:59.399Z,59.68
2023-04-18T14:22:27.180Z,60.64
2023-04-18T14:24:56.182Z,61.53
2023-04-18T14:27:30.705Z,63.90
2023-04-18T14:29:59.789Z,65.36
2023-04-18T14:32:27.678Z,61.03
2023-04-18T14:34:56.516Z,56.85
2023-04-18T14:37:24.559Z,54.22
2023-04-18T14:39:52.567Z,55.48
2023-04-18T14:42:20.878Z,56.25
2023-04-18T14:44:48.662Z,57.22
2023-04-18T14:47:16.480Z,57.30
2023-04-18T14:49:44.204Z,58.95
2023-04-18T14:52:12.222Z,57.87
2023-04-18T14:54:40.082Z,57.00
2023-04-18T14:57:08.520Z,57.72
2023-04-18T14:59:36.264Z,57.65
2023-04-18T15:02:04.120Z,58.09
2023-04-18T15:04:32.118Z,57.96
2023-04-18T15:06:59.899Z,58.03
2023-04-18T15:09:28.462Z,57.54
2023-04-18T15:11:58.260Z,56.63
2023-04-18T15:14:26.123Z,57.05
2023-04-18T15:16:54.044Z,57.49
2023-04-18T15:19:21.883Z,57.71
2023-04-18T15:21:49.677Z,58.17
2023-04-18T15:24:17.469Z,58.54
2023-04-18T15:26:45.685Z,57.58
2023-04-18T15:29:13.492Z,57.38
2023-04-18T15:31:41.546Z,57.25
2023-04-18T15:34:09.623Z,57.66
2023-04-18T15:36:37.559Z,57.83
2023-04-18T15:39:05.911Z,57.45
2023-04-18T15:41:35.548Z,57.38
2023-04-18T15:44:04.933Z,57.82
2023-04-18T15:46:34.798Z,58.28
2023-04-18T15:49:02.838Z,58.89
2023-04-18T15:51:31.022Z,59.36
2023-04-18T15:53:59.033Z,59.42
2023-04-18T15:56:27.243Z,59.93
2023-04-18T15:58:56.539Z,60.34
2023-04-18T16:01:24.309Z,60.78
2023-04-18T16:03:52.358Z,61.20
2023-04-18T16:06:23.587Z,61.53
2023-04-18T16:08:51.363Z,61.64
2023-04-18T16:11:19.844Z,62.05
2023-04-18T16:13:47.803Z,63.31
2023-04-18T16:16:15.858Z,63.75
2023-04-18T16:18:43.664Z,59.96
2023-04-18T16:21:17.418Z,56.80
2023-04-18T16:23:45.148Z,56.11
2023-04-18T16:26:12.897Z,56.97
2023-04-18T16:28:42.055Z,57.94
2023-04-18T16:31:09.930Z,58.98
2023-04-18T16:33:38.983Z,60.08
2023-04-18T16:36:07.334Z,60.49
2023-04-18T16:38:35.143Z,61.08
2023-04-18T16:41:03.756Z,63.34
2023-04-18T16:43:36.298Z,65.40
2023-04-18T16:46:04.421Z,62.78
2023-04-18T16:48:32.918Z,58.46
2023-04-18T16:51:01.208Z,56.47
2023-04-18T16:53:29.001Z,56.98
2023-04-18T16:55:56.800Z,57.58
2023-04-18T16:58:24.584Z,59.00
2023-04-18T17:00:52.836Z,60.11
2023-04-18T17:03:21.002Z,60.56
2023-04-18T17:05:49.158Z,60.83
2023-04-18T17:08:16.972Z,61.18
2023-04-18T17:10:44.783Z,61.61
2023-04-18T17:13:12.638Z,64.77
2023-04-18T17:15:43.024Z,65.39
2023-04-18T17:18:10.976Z,61.75
2023-04-18T17:20:38.870Z,57.76
2023-04-18T17:23:06.757Z,56.25
2023-04-18T17:25:35.060Z,56.97
2023-04-18T17:28:05.995Z,57.99
2023-04-18T17:30:33.843Z,58.68
2023-04-18T17:33:01.765Z,59.72
2023-04-18T17:35:29.827Z,60.15
2023-04-18T17:37:57.989Z,61.15
2023-04-18T17:40:26.277Z,61.66
2023-04-18T17:42:54.140Z,64.79
2023-04-18T17:45:22.101Z,65.61
2023-04-18T17:47:50.988Z,62.23
2023-04-18T17:50:19.609Z,58.12
2023-04-18T17:52:49.819Z,56.34
2023-04-18T17:55:18.110Z,56.90
2023-04-18T17:57:46.560Z,57.55
2023-04-18T18:00:15.906Z,58.55
2023-04-18T18:02:44.596Z,59.50
2023-04-18T18:05:13.551Z,60.15
2023-04-18T18:07:47.279Z,61.02
2023-04-18T18:10:19.063Z,61.34
2023-04-18T18:12:47.033Z,64.97
2023-04-18T18:15:15.041Z,65.45
2023-04-18T18:17:42.919Z,61.98
2023-04-18T18:20:11.184Z,58.53
2023-04-18T18:22:39.286Z,56.22
2023-04-18T18:25:07.965Z,56.67
2023-04-18T18:27:36.648Z,57.68
2023-04-18T18:30:05.850Z,58.51
2023-04-18T18:32:34.319Z,59.75
2023-04-18T18:35:02.701Z,60.11
2023-04-18T18:37:30.841Z,60.81
2023-04-18T18:40:00.213Z,61.31
2023-04-18T18:42:30.550Z,64.52
2023-04-18T18:44:58.310Z,65.29
2023-04-18T18:47:26.498Z,61.51
2023-04-18T18:49:54.460Z,57.48
2023-04-18T18:52:24.751Z,55.92
2023-04-18T18:54:52.773Z,56.33
2023-04-18T18:57:21.385Z,57.57
2023-04-18T18:59:54.511Z,58.10
2023-04-18T19:02:24.012Z,59.20
2023-04-18T19:04:52.180Z,59.70
2023-04-18T19:07:20.398Z,60.20
2023-04-18T19:09:48.309Z,60.54
2023-04-18T19:12:16.290Z,61.10
2023-04-18T19:15:17.422Z,64.30
2023-04-18T19:17:49.704Z,65.11
2023-04-18T19:20:19.376Z,61.51
2023-04-18T19:23:03.532Z,56.13
2023-04-18T19:29:25.240Z,55.39
2023-04-18T19:32:25.539Z,56.90
2023-04-18T19:35:25.743Z,57.56
2023-04-18T19:38:01.370Z,58.63
2023-04-18T19:40:29.908Z,59.23
2023-04-18T19:42:58.135Z,59.97
2023-04-18T19:45:26.370Z,60.71
2023-04-18T19:47:54.203Z,61.32
2023-04-18T19:50:22.064Z,64.43
2023-04-18T19:52:50.057Z,65.73
2023-04-18T19:55:17.847Z,61.18
2023-04-18T19:57:45.884Z,56.67
2023-04-18T20:00:14.518Z,55.15
2023-04-18T20:02:43.253Z,55.75
2023-04-18T20:05:12.891Z,56.84
2023-04-18T20:07:41.814Z,57.61
2023-04-18T20:10:10.720Z,58.53
2023-04-18T20:12:38.471Z,59.30
2023-04-18T20:15:07.227Z,60.13
2023-04-18T20:17:35.430Z,60.19
2023-04-18T20:20:04.641Z,60.88
2023-04-18T20:22:32.539Z,63.29
2023-04-18T20:25:01.743Z,62.68
2023-04-18T20:27:30.059Z,61.10
2023-04-18T20:29:57.805Z,57.10
2023-04-18T20:32:27.186Z,55.27
2023-04-18T20:34:55.017Z,55.77
2023-04-18T20:37:23.298Z,56.74
2023-04-18T20:39:54.690Z,57.63
2023-04-18T20:42:22.714Z,58.30
2023-04-18T20:44:50.634Z,59.19
2023-04-18T20:47:18.688Z,59.59
2023-04-18T20:49:46.903Z,60.09
2023-04-18T20:52:14.933Z,60.48
2023-04-18T20:54:42.879Z,60.95
2023-04-18T20:57:10.660Z,61.63
2023-04-18T20:59:38.610Z,64.73
2023-04-18T21:02:07.215Z,64.65
2023-04-18T21:04:35.267Z,59.80
2023-04-18T21:07:03.275Z,55.91
2023-04-18T21:09:36.330Z,55.60
2023-04-18T21:12:05.423Z,56.55
2023-04-18T21:14:33.185Z,57.57
2023-04-18T21:17:01.755Z,58.08
2023-04-18T21:19:29.500Z,58.65
2023-04-18T21:21:57.364Z,59.27
2023-04-18T21:24:25.215Z,59.73
2023-04-18T21:26:53.292Z,61.01
2023-04-18T21:29:21.682Z,61.33
2023-04-18T21:31:51.611Z,61.72
2023-04-18T21:34:20.095Z,63.59
2023-04-18T21:36:48.008Z,65.35
2023-04-18T21:39:16.199Z,61.51
2023-04-18T21:41:44.619Z,57.08
2023-04-18T21:44:12.958Z,55.46
2023-04-18T21:46:41.008Z,56.20
2023-04-18T21:49:08.731Z,58.21
2023-04-18T21:51:36.580Z,58.26
2023-04-18T21:54:04.673Z,59.52
2023-04-18T21:56:32.449Z,60.26
2023-04-18T21:59:00.373Z,60.59
2023-04-18T22:01:28.297Z,61.44
2023-04-18T22:03:56.297Z,61.84
2023-04-18T22:06:24.286Z,64.46
2023-04-18T22:08:52.292Z,65.31
2023-04-18T22:11:20.222Z,62.04
2023-04-18T22:13:50.134Z,57.57
2023-04-18T22:16:17.938Z,55.80
2023-04-18T22:18:45.719Z,56.58
2023-04-18T22:21:13.511Z,57.58
2023-04-18T22:23:41.278Z,59.19
2023-04-18T22:26:09.623Z,59.96
2023-04-18T22:28:37.929Z,61.10
2023-04-18T22:31:05.847Z,62.73
2023-04-18T22:33:34.262Z,63.28
2023-04-18T22:36:02.547Z,61.76
2023-04-18T22:38:30.337Z,58.04
2023-04-18T22:40:59.532Z,56.15
2023-04-18T22:43:27.324Z,57.29
2023-04-18T22:45:55.696Z,58.14
2023-04-18T22:48:23.718Z,59.52
2023-04-18T22:50:51.600Z,60.89
2023-04-18T22:53:19.763Z,61.20
2023-04-18T22:55:48.336Z,63.48
2023-04-18T22:58:16.238Z,64.04
2023-04-18T23:00:44.067Z,61.44
2023-04-18T23:03:12.174Z,57.22
2023-04-18T23:05:41.115Z,56.14
2023-04-18T23:08:09.014Z,56.58
2023-04-18T23:10:36.802Z,57.84
2023-04-18T23:13:04.685Z,59.31
2023-04-18T23:15:32.553Z,60.31
2023-04-18T23:18:00.527Z,60.88
2023-04-18T23:20:28.294Z,62.16
2023-04-18T23:22:56.716Z,64.45
2023-04-18T23:25:24.592Z,63.20
2023-04-18T23:27:52.424Z,59.36
2023-04-18T23:30:20.238Z,55.22
2023-04-18T23:32:48.107Z,55.67
2023-04-18T23:35:15.975Z,57.43
2023-04-18T23:37:43.820Z,58.84
2023-04-18T23:40:11.570Z,58.97
2023-04-18T23:42:39.596Z,60.01
2023-04-18T23:45:08.036Z,61.01
2023-04-18T23:47:36.388Z,62.54
2023-04-18T23:50:04.927Z,64.74
2023-04-18T23:52:32.707Z,61.51
2023-04-18T23:55:01.220Z,57.41
2023-04-18T23:57:29.172Z,55.06
2023-04-18T23:59:56.975Z,55.61
